createdAt,value
2018-07-01T00:01:01.264Z,1.43
2018-07-01T00:03:29.693Z,0.90
2018-07-01T00:05:58.318Z,1.07
2018-07-01T00:08:27.107Z,0.80
2018-07-01T00:10:56.366Z,1.20
2018-07-01T00:13:25.065Z,1.00
2018-07-01T00:15:53.575Z,1.10
2018-07-01T00:18:22.225Z,0.93
2018-07-01T00:20:50.938Z,1.30
2018-07-01T00:23:19.634Z,1.03
2018-07-01T00:25:48.341Z,1.50
2018-07-01T00:28:16.861Z,1.30
2018-07-01T00:30:45.457Z,1.00
2018-07-01T00:33:14.185Z,1.30
2018-07-01T00:35:42.919Z,1.20
2018-07-01T00:38:11.610Z,1.30
2018-07-01T00:40:40.300Z,1.27
2018-07-01T00:43:09.107Z,1.20
2018-07-01T00:45:37.874Z,1.50
2018-07-01T00:48:06.684Z,1.47
2018-07-01T00:50:35.368Z,1.30
2018-07-01T00:53:04.094Z,1.10
2018-07-01T00:55:32.594Z,1.10
2018-07-01T00:58:01.219Z,1.20
2018-07-01T01:00:32.697Z,1.20
2018-07-01T01:03:02.482Z,1.17
2018-07-01T01:05:31.838Z,1.23
2018-07-01T01:08:00.673Z,1.30
2018-07-01T01:10:30.077Z,1.50
2018-07-01T01:12:58.755Z,1.50
2018-07-01T01:15:27.452Z,1.40
2018-07-01T01:17:56.119Z,1.20
2018-07-01T01:20:24.862Z,1.83
2018-07-01T01:22:53.344Z,1.50
2018-07-01T01:25:21.973Z,1.63
2018-07-01T01:27:50.657Z,1.80
2018-07-01T01:30:19.366Z,2.00
2018-07-01T01:32:47.817Z,1.80
2018-07-01T01:35:16.281Z,1.90
2018-07-01T01:37:44.870Z,1.50
2018-07-01T01:40:15.142Z,1.67
2018-07-01T01:42:49.270Z,1.70
2018-07-01T01:45:37.624Z,2.00
2018-07-01T01:48:16.026Z,1.90
2018-07-01T01:50:51.085Z,2.57
2018-07-01T01:53:24.248Z,2.03
2018-07-01T01:56:00.238Z,1.47
2018-07-01T01:58:34.901Z,1.80
2018-07-01T02:01:08.973Z,1.87
2018-07-01T02:03:42.162Z,1.40
2018-07-01T02:06:13.581Z,1.40
2018-07-01T02:08:45.241Z,1.80
2018-07-01T02:11:13.941Z,1.60
2018-07-01T02:13:45.932Z,1.83
2018-07-01T02:16:18.103Z,1.67
2018-07-01T02:18:46.790Z,1.70
2018-07-01T02:21:15.489Z,1.23
2018-07-01T02:23:48.749Z,1.40
2018-07-01T02:26:17.266Z,1.53
2018-07-01T02:28:45.889Z,1.27
2018-07-01T02:31:14.596Z,1.50
2018-07-01T02:33:43.305Z,1.63
2018-07-01T02:36:12.060Z,1.70
2018-07-01T02:38:40.782Z,1.30
2018-07-01T02:41:09.451Z,1.73
2018-07-01T02:43:37.956Z,1.23
2018-07-01T02:46:06.548Z,1.00
2018-07-01T02:48:35.227Z,1.43
2018-07-01T02:51:03.938Z,1.27
2018-07-01T02:53:32.654Z,1.33
2018-07-01T02:56:01.139Z,1.43
2018-07-01T02:58:29.717Z,1.57
2018-07-01T03:00:58.425Z,1.00
2018-07-01T03:03:27.133Z,1.63
2018-07-01T03:05:55.855Z,1.40
2018-07-01T03:08:24.350Z,1.70
2018-07-01T03:10:52.948Z,1.50
2018-07-01T03:13:21.703Z,1.67
2018-07-01T03:15:50.424Z,1.57
2018-07-01T03:18:19.115Z,1.70
2018-07-01T03:20:47.873Z,1.63
2018-07-01T03:23:16.569Z,1.43
2018-07-01T03:25:45.236Z,1.60
2018-07-01T03:28:13.919Z,1.40
2018-07-01T03:30:42.649Z,1.30
2018-07-01T03:33:11.121Z,1.27
2018-07-01T03:35:39.516Z,1.20
2018-07-01T03:38:08.139Z,1.33
2018-07-01T03:40:36.854Z,1.37
2018-07-01T03:43:05.630Z,1.57
2018-07-01T03:45:34.158Z,1.43
2018-07-01T03:48:02.788Z,1.50
2018-07-01T03:50:31.530Z,1.10
2018-07-01T03:52:59.984Z,1.50
2018-07-01T03:55:28.391Z,1.20
2018-07-01T03:57:56.989Z,1.47
2018-07-01T04:00:25.788Z,1.10
2018-07-01T04:02:55.025Z,1.63
2018-07-01T04:05:23.706Z,1.40
2018-07-01T04:07:52.464Z,1.20
2018-07-01T04:10:21.402Z,1.40
2018-07-01T04:12:50.098Z,1.37
2018-07-01T04:15:19.119Z,1.60
2018-07-01T04:17:47.452Z,1.30
2018-07-01T04:20:16.097Z,1.30
2018-07-01T04:22:44.791Z,1.00
2018-07-01T04:25:13.470Z,1.70
2018-07-01T04:27:42.177Z,1.27
2018-07-01T04:30:10.676Z,1.47
2018-07-01T04:32:39.269Z,1.50
2018-07-01T04:35:07.755Z,1.00
2018-07-01T04:37:36.497Z,1.53
2018-07-01T04:40:05.234Z,1.30
2018-07-01T04:42:33.942Z,1.30
2018-07-01T04:45:02.654Z,1.83
2018-07-01T04:47:31.370Z,1.50
2018-07-01T04:50:00.101Z,1.20
2018-07-01T04:52:28.824Z,1.50
2018-07-01T04:54:57.392Z,1.17
2018-07-01T04:57:25.708Z,1.40
2018-07-01T04:59:54.328Z,1.40
2018-07-01T05:02:23.059Z,1.20
2018-07-01T05:04:52.058Z,1.77
2018-07-01T05:07:20.791Z,1.10
2018-07-01T05:09:49.578Z,1.53
2018-07-01T05:12:18.285Z,1.17
2018-07-01T05:14:47.005Z,0.93
2018-07-01T05:17:15.754Z,0.90
2018-07-01T05:19:44.377Z,1.30
2018-07-01T05:22:13.072Z,1.30
2018-07-01T05:24:41.828Z,1.20
2018-07-01T05:27:10.579Z,0.97
2018-07-01T05:29:39.093Z,1.20
2018-07-01T05:32:07.699Z,1.03
2018-07-01T05:34:36.437Z,0.90
2018-07-01T05:37:05.161Z,0.97
2018-07-01T05:39:33.837Z,1.07
2018-07-01T05:42:02.534Z,1.00
2018-07-01T05:44:31.278Z,1.10
2018-07-01T05:46:59.814Z,1.00
2018-07-01T05:49:28.445Z,1.03
2018-07-01T05:51:57.178Z,1.40
2018-07-01T05:54:25.922Z,0.80
2018-07-01T05:56:54.409Z,0.90
2018-07-01T05:59:23.134Z,1.10
2018-07-01T06:01:51.894Z,1.10
2018-07-01T06:04:20.594Z,0.97
2018-07-01T06:06:49.289Z,1.40
2018-07-01T06:09:18.056Z,0.90
2018-07-01T06:11:46.784Z,1.00
2018-07-01T06:14:15.508Z,1.50
2018-07-01T06:16:44.280Z,1.43
2018-07-01T06:19:12.898Z,1.50
2018-07-01T06:21:41.646Z,1.63
2018-07-01T06:24:10.375Z,1.23
2018-07-01T06:26:38.873Z,1.63
2018-07-01T06:29:07.525Z,1.07
2018-07-01T06:31:36.027Z,1.10
2018-07-01T06:34:04.665Z,1.03
2018-07-01T06:36:33.398Z,1.37
2018-07-01T06:39:02.074Z,1.30
2018-07-01T06:41:30.789Z,1.40
2018-07-01T06:43:59.506Z,1.20
2018-07-01T06:46:28.457Z,1.80
2018-07-01T06:48:57.159Z,1.27
2018-07-01T06:51:25.842Z,1.27
2018-07-01T06:53:54.549Z,1.00
2018-07-01T06:56:23.256Z,1.00
2018-07-01T06:58:52.249Z,1.10
2018-07-01T07:01:20.736Z,1.20
2018-07-01T07:03:49.327Z,0.80
2018-07-01T07:06:17.848Z,1.00
2018-07-01T07:08:46.455Z,0.90
2018-07-01T07:11:15.194Z,1.20
2018-07-01T07:13:43.899Z,0.93
2018-07-01T07:16:12.675Z,0.40
2018-07-01T07:18:41.340Z,0.70
2018-07-01T07:21:09.830Z,0.90
2018-07-01T07:23:38.427Z,0.80
2018-07-01T07:26:07.116Z,0.80
2018-07-01T07:28:35.799Z,0.60
2018-07-01T07:31:04.543Z,0.90
2018-07-01T07:33:33.226Z,0.60
2018-07-01T07:36:01.957Z,0.73
2018-07-01T07:38:30.648Z,0.80
2018-07-01T07:40:59.345Z,0.80
2018-07-01T07:43:28.081Z,0.80
2018-07-01T07:45:57.063Z,0.97
2018-07-01T07:48:25.775Z,1.10
2018-07-01T07:50:54.264Z,1.00
2018-07-01T07:53:22.911Z,1.30
2018-07-01T07:55:51.657Z,0.70
2018-07-01T07:58:20.374Z,0.67
2018-07-01T08:00:49.082Z,0.70
2018-07-01T08:03:17.800Z,0.80
2018-07-01T08:05:46.525Z,0.60
2018-07-01T08:08:15.273Z,0.70
2018-07-01T08:10:43.745Z,0.97
2018-07-01T08:13:12.199Z,0.97
2018-07-01T08:15:40.901Z,0.80
2018-07-01T08:18:09.606Z,0.87
2018-07-01T08:20:38.075Z,0.87
2018-07-01T08:23:06.480Z,0.63
2018-07-01T08:25:35.096Z,0.50
2018-07-01T08:28:03.605Z,1.10
2018-07-01T08:30:32.265Z,0.93
2018-07-01T08:33:00.961Z,1.20
2018-07-01T08:35:29.461Z,1.30
2018-07-01T08:37:58.051Z,0.60
2018-07-01T08:40:26.553Z,0.63
2018-07-01T08:42:55.012Z,1.10
2018-07-01T08:45:23.404Z,0.77
2018-07-01T08:47:52.046Z,0.63
2018-07-01T08:50:20.756Z,0.77
2018-07-01T08:52:49.563Z,0.80
2018-07-01T08:55:18.217Z,1.20
2018-07-01T08:57:46.922Z,2.77
2018-07-01T09:00:15.639Z,0.60
2018-07-01T09:02:44.402Z,0.70
2018-07-01T09:05:13.133Z,1.07
2018-07-01T09:07:41.805Z,1.40
2018-07-01T09:10:10.553Z,0.90
2018-07-01T09:12:39.305Z,0.90
2018-07-01T09:15:07.968Z,0.73
2018-07-01T09:17:36.715Z,0.70
2018-07-01T09:20:05.444Z,0.80
2018-07-01T09:22:34.163Z,1.00
2018-07-01T09:25:02.900Z,2.37
2018-07-01T09:27:31.604Z,1.00
2018-07-01T09:30:01.483Z,0.70
2018-07-01T09:32:30.938Z,0.63
2018-07-01T09:34:59.868Z,0.70
2018-07-01T09:37:28.642Z,1.07
2018-07-01T09:39:57.346Z,0.70
2018-07-01T09:42:26.079Z,1.50
2018-07-01T09:44:54.801Z,0.80
2018-07-01T09:47:23.543Z,1.00
2018-07-01T09:49:52.247Z,1.10
2018-07-01T09:52:20.977Z,0.97
2018-07-01T09:54:49.714Z,1.33
2018-07-01T09:57:18.418Z,1.20
2018-07-01T09:59:47.137Z,1.30
2018-07-01T10:02:15.801Z,1.00
2018-07-01T10:04:44.523Z,0.70
2018-07-01T10:07:13.239Z,0.90
2018-07-01T10:09:41.996Z,0.60
2018-07-01T10:12:10.632Z,0.90
2018-07-01T10:14:39.047Z,1.00
2018-07-01T10:17:07.453Z,0.60
2018-07-01T10:19:36.136Z,1.03
2018-07-01T10:22:04.655Z,0.80
2018-07-01T10:24:33.258Z,0.97
2018-07-01T10:27:01.975Z,0.63
2018-07-01T10:29:30.719Z,0.87
2018-07-01T10:31:59.488Z,1.20
2018-07-01T10:34:28.199Z,0.70
2018-07-01T10:36:56.925Z,0.90
2018-07-01T10:39:25.667Z,0.80
2018-07-01T10:41:54.410Z,0.70
2018-07-01T10:44:23.074Z,0.80
2018-07-01T10:46:51.778Z,0.80
2018-07-01T10:49:20.459Z,2.20
2018-07-01T10:51:49.170Z,1.10
2018-07-01T10:54:18.244Z,1.53
2018-07-01T10:56:46.680Z,1.03
2018-07-01T10:59:15.287Z,0.70
2018-07-01T11:01:43.992Z,1.00
2018-07-01T11:04:12.677Z,0.60
2018-07-01T11:06:41.396Z,0.93
2018-07-01T11:09:11.662Z,1.10
2018-07-01T11:11:40.404Z,1.33
2018-07-01T11:14:09.066Z,0.90
2018-07-01T11:16:37.760Z,2.10
2018-07-01T11:19:06.225Z,1.13
2018-07-01T11:21:34.641Z,0.93
2018-07-01T11:24:03.297Z,1.27
2018-07-01T11:26:31.840Z,1.07
2018-07-01T11:29:00.173Z,0.80
2018-07-01T11:31:28.802Z,1.27
2018-07-01T11:33:57.523Z,1.10
2018-07-01T11:36:26.239Z,0.93
2018-07-01T11:38:54.958Z,1.00
2018-07-01T11:41:23.666Z,0.83
2018-07-01T11:43:52.351Z,0.90
2018-07-01T11:46:21.065Z,1.57
2018-07-01T11:48:49.784Z,0.80
2018-07-01T11:51:18.763Z,0.80
2018-07-01T11:53:47.494Z,0.83
2018-07-01T11:56:16.201Z,0.90
2018-07-01T11:58:44.909Z,0.63
2018-07-01T12:01:13.401Z,0.73
2018-07-01T12:03:42.576Z,0.60
2018-07-01T12:06:10.979Z,0.77
2018-07-01T12:08:39.602Z,0.70
2018-07-01T12:11:08.297Z,1.67
2018-07-01T12:13:37.006Z,1.40
2018-07-01T12:16:05.698Z,0.70
2018-07-01T12:18:34.483Z,1.00
2018-07-01T12:21:03.186Z,0.73
2018-07-01T12:23:31.745Z,0.73
2018-07-01T12:26:00.298Z,0.90
2018-07-01T12:28:29.011Z,2.10
2018-07-01T12:30:57.715Z,1.17
2018-07-01T12:33:26.440Z,1.10
2018-07-01T12:35:55.172Z,1.40
2018-07-01T12:38:23.936Z,0.90
2018-07-01T12:40:52.645Z,0.70
2018-07-01T12:43:21.313Z,0.87
2018-07-01T12:45:50.030Z,0.73
2018-07-01T12:48:18.505Z,0.50
2018-07-01T12:50:47.181Z,0.80
2018-07-01T12:53:15.866Z,0.93
2018-07-01T12:55:44.552Z,0.70
2018-07-01T12:58:13.327Z,1.30
2018-07-01T13:00:42.031Z,1.03
2018-07-01T13:03:10.533Z,0.80
2018-07-01T13:05:38.991Z,0.77
2018-07-01T13:08:07.619Z,1.30
2018-07-01T13:10:36.689Z,0.67
2018-07-01T13:13:05.438Z,0.87
2018-07-01T13:15:34.123Z,0.60
2018-07-01T13:18:02.806Z,2.00
2018-07-01T13:20:31.490Z,3.20
2018-07-01T13:23:00.190Z,1.77
2018-07-01T13:25:28.876Z,0.83
2018-07-01T13:27:57.578Z,0.70
2018-07-01T13:30:26.260Z,0.80
2018-07-01T13:32:55.017Z,1.03
2018-07-01T13:35:23.682Z,0.67
2018-07-01T13:37:52.385Z,2.67
2018-07-01T13:40:21.094Z,3.00
2018-07-01T13:42:49.781Z,5.07
2018-07-01T13:45:18.252Z,1.33
2018-07-01T13:47:46.858Z,1.27
2018-07-01T13:50:15.576Z,2.60
2018-07-01T13:52:44.116Z,0.60
2018-07-01T13:55:12.686Z,0.80
2018-07-01T13:57:41.452Z,3.10
2018-07-01T14:00:10.251Z,2.00
2018-07-01T14:02:38.970Z,2.50
2018-07-01T14:05:07.717Z,3.70
2018-07-01T14:07:36.426Z,4.40
2018-07-01T14:10:05.337Z,1.23
2018-07-01T14:12:34.079Z,0.80
2018-07-01T14:15:02.726Z,1.00
2018-07-01T14:17:31.519Z,1.10
2018-07-01T14:19:59.922Z,0.90
2018-07-01T14:22:28.533Z,0.83
2018-07-01T14:24:57.194Z,0.73
2018-07-01T14:27:25.911Z,1.93
2018-07-01T14:29:54.699Z,1.10
2018-07-01T14:32:23.369Z,0.70
2018-07-01T14:34:52.074Z,0.90
2018-07-01T14:37:20.831Z,0.83
2018-07-01T14:39:49.525Z,0.57
2018-07-01T14:42:18.267Z,3.20
2018-07-01T14:44:46.971Z,1.40
2018-07-01T14:47:15.461Z,3.60
2018-07-01T14:49:44.110Z,5.60
2018-07-01T14:52:13.003Z,4.13
2018-07-01T14:54:41.721Z,1.17
2018-07-01T14:57:10.430Z,1.00
2018-07-01T14:59:39.493Z,0.80
2018-07-01T15:02:08.280Z,1.27
2018-07-01T15:04:36.789Z,0.90
2018-07-01T15:07:05.473Z,0.80
2018-07-01T15:09:34.161Z,2.43
2018-07-01T15:12:02.743Z,2.27
2018-07-01T15:14:31.124Z,3.00
2018-07-01T15:16:59.718Z,1.33
2018-07-01T15:19:28.605Z,1.20
2018-07-01T15:21:57.289Z,1.20
2018-07-01T15:24:26.014Z,0.70
2018-07-01T15:26:54.729Z,1.17
2018-07-01T15:29:23.422Z,2.10
2018-07-01T15:31:52.140Z,1.20
2018-07-01T15:34:20.612Z,1.30
2018-07-01T15:36:49.244Z,0.60
2018-07-01T15:39:17.958Z,0.90
2018-07-01T15:41:46.649Z,0.63
2018-07-01T15:44:15.526Z,1.10
2018-07-01T15:46:44.037Z,1.67
2018-07-01T15:49:12.665Z,0.67
2018-07-01T15:51:41.393Z,1.07
2018-07-01T15:54:10.082Z,0.97
2018-07-01T15:56:39.176Z,0.80
2018-07-01T15:59:07.754Z,0.80
2018-07-01T16:01:36.246Z,2.10
2018-07-01T16:04:04.813Z,5.63
2018-07-01T16:06:33.427Z,1.00
2018-07-01T16:09:02.148Z,0.80
2018-07-01T16:11:30.858Z,0.80
2018-07-01T16:13:59.545Z,1.03
2018-07-01T16:16:28.354Z,1.00
2018-07-01T16:18:57.033Z,0.60
2018-07-01T16:21:25.537Z,1.00
2018-07-01T16:23:54.131Z,1.20
2018-07-01T16:26:28.254Z,0.80
2018-07-01T16:29:00.529Z,1.37
2018-07-01T16:31:30.475Z,0.80
2018-07-01T16:33:59.215Z,0.83
2018-07-01T16:36:29.175Z,0.70
2018-07-01T16:38:57.928Z,1.40
2018-07-01T16:41:26.845Z,0.70
2018-07-01T16:43:55.978Z,0.90
2018-07-01T16:46:24.468Z,0.80
2018-07-01T16:48:53.071Z,1.10
2018-07-01T16:51:21.849Z,0.60
2018-07-01T16:53:50.289Z,0.90
2018-07-01T16:56:18.906Z,1.30
2018-07-01T16:58:47.596Z,0.93
2018-07-01T17:01:16.277Z,0.83
2018-07-01T17:03:44.951Z,1.13
2018-07-01T17:06:14.400Z,1.50
2018-07-01T17:08:42.998Z,0.50
2018-07-01T17:11:11.769Z,0.70
2018-07-01T17:13:40.453Z,1.40
2018-07-01T17:16:09.165Z,1.10
2018-07-01T17:18:38.353Z,0.73
2018-07-01T17:21:07.295Z,1.00
2018-07-01T17:23:35.813Z,1.60
2018-07-01T17:26:04.397Z,1.43
2018-07-01T17:28:33.116Z,0.73
2018-07-01T17:31:07.288Z,1.27
2018-07-01T17:33:36.228Z,1.43
2018-07-01T17:36:05.295Z,0.90
2018-07-01T17:38:37.176Z,1.60
2018-07-01T17:41:05.918Z,1.10
2018-07-01T17:43:34.613Z,1.20
2018-07-01T17:46:03.344Z,1.70
2018-07-01T17:48:32.111Z,0.70
2018-07-01T17:51:00.921Z,0.73
2018-07-01T17:53:41.209Z,1.17
2018-07-01T17:56:09.837Z,1.17
2018-07-01T17:58:38.545Z,2.13
2018-07-01T18:01:07.309Z,1.63
2018-07-01T18:03:36.000Z,0.97
2018-07-01T18:06:04.989Z,0.90
2018-07-01T18:08:33.697Z,1.33
2018-07-01T18:11:02.378Z,2.20
2018-07-01T18:13:31.059Z,0.80
2018-07-01T18:15:59.779Z,0.80
2018-07-01T18:18:28.497Z,1.30
2018-07-01T18:20:57.209Z,1.30
2018-07-01T18:23:53.707Z,1.20
2018-07-01T18:25:54.673Z,1.00
2018-07-01T18:28:34.107Z,1.10
2018-07-01T18:30:52.319Z,1.80
2018-07-01T18:33:20.929Z,1.30
2018-07-01T18:35:49.630Z,1.00
2018-07-01T18:38:18.362Z,1.20
2018-07-01T18:40:47.624Z,1.30
2018-07-01T18:43:15.786Z,1.47
2018-07-01T18:45:44.513Z,0.97
2018-07-01T18:48:13.206Z,0.70
2018-07-01T18:50:41.769Z,0.90
2018-07-01T18:53:10.416Z,0.70
2018-07-01T18:55:39.109Z,0.93
2018-07-01T18:58:07.879Z,0.70
2018-07-01T19:00:36.336Z,0.80
2018-07-01T19:03:04.775Z,0.70
2018-07-01T19:05:33.379Z,1.10
2018-07-01T19:08:02.130Z,0.90
2018-07-01T19:10:30.885Z,1.57
2018-07-01T19:12:59.689Z,1.70
2018-07-01T19:15:28.428Z,0.90
2018-07-01T19:17:57.178Z,1.70
2018-07-01T19:20:25.897Z,1.70
2018-07-01T19:22:54.706Z,0.80
2018-07-01T19:25:23.399Z,0.63
2018-07-01T19:27:52.107Z,1.00
2018-07-01T19:30:20.818Z,0.90
2018-07-01T19:32:49.549Z,1.20
2018-07-01T19:35:18.263Z,0.90
2018-07-01T19:37:46.777Z,1.20
2018-07-01T19:40:15.414Z,1.30
2018-07-01T19:42:43.951Z,1.50
2018-07-01T19:45:12.509Z,1.33
2018-07-01T19:47:41.238Z,1.00
2018-07-01T19:50:10.940Z,1.23
2018-07-01T19:52:39.829Z,1.20
2018-07-01T19:55:08.722Z,1.43
2018-07-01T19:57:37.508Z,1.20
2018-07-01T20:00:06.611Z,1.27
2018-07-01T20:02:35.350Z,2.03
2018-07-01T20:05:04.112Z,2.87
2018-07-01T20:07:32.794Z,1.87
2018-07-01T20:10:01.495Z,2.07
2018-07-01T20:12:29.962Z,1.63
2018-07-01T20:14:58.436Z,2.30
2018-07-01T20:17:26.995Z,1.17
2018-07-01T20:19:55.723Z,1.90
2018-07-01T20:22:24.423Z,2.33
2018-07-01T20:24:52.892Z,2.40
2018-07-01T20:27:21.498Z,1.90
2018-07-01T20:29:50.199Z,1.57
2018-07-01T20:32:18.883Z,1.20
2018-07-01T20:34:47.622Z,1.10
2018-07-01T20:37:16.285Z,1.13
2018-07-01T20:39:44.969Z,1.50
2018-07-01T20:42:13.668Z,1.23
2018-07-01T20:44:42.347Z,1.07
2018-07-01T20:47:11.033Z,1.00
2018-07-01T20:49:39.754Z,1.57
2018-07-01T20:52:08.473Z,2.00
2018-07-01T20:54:37.152Z,1.33
2018-07-01T20:57:05.857Z,1.67
2018-07-01T20:59:34.558Z,1.67
2018-07-01T21:02:03.226Z,1.00
2018-07-01T21:04:31.937Z,0.93
2018-07-01T21:07:00.606Z,0.90
2018-07-01T21:09:29.324Z,1.53
2018-07-01T21:11:57.998Z,1.20
2018-07-01T21:14:26.725Z,1.40
2018-07-01T21:16:55.192Z,4.27
2018-07-01T21:19:23.790Z,1.63
2018-07-01T21:21:52.497Z,1.37
2018-07-01T21:24:20.969Z,1.30
2018-07-01T21:26:49.566Z,0.97
2018-07-01T21:29:18.310Z,1.60
2018-07-01T21:31:47.628Z,2.10
2018-07-01T21:34:16.326Z,1.83
2018-07-01T21:36:44.817Z,1.27
2018-07-01T21:39:13.673Z,1.43
2018-07-01T21:41:43.031Z,3.17
2018-07-01T21:44:11.628Z,3.13
2018-07-01T21:46:40.354Z,5.70
2018-07-01T21:49:09.414Z,3.90
2018-07-01T21:51:38.421Z,1.60
2018-07-01T21:54:07.175Z,1.80
2018-07-01T21:56:35.838Z,3.43
2018-07-01T21:59:04.554Z,4.03
2018-07-01T22:01:33.231Z,4.00
2018-07-01T22:04:01.961Z,3.67
2018-07-01T22:06:36.051Z,4.67
2018-07-01T22:09:06.744Z,3.60
2018-07-01T22:11:48.189Z,2.90
2018-07-01T22:14:22.227Z,2.50
2018-07-01T22:16:50.923Z,3.00
2018-07-01T22:19:20.093Z,6.10
2018-07-01T22:21:49.999Z,3.93
2018-07-01T22:24:18.689Z,4.53
2018-07-01T22:26:47.390Z,5.33
2018-07-01T22:29:16.864Z,5.00
2018-07-01T22:31:45.546Z,5.80
2018-07-01T22:34:15.488Z,3.80
2018-07-01T22:36:44.657Z,4.87
2018-07-01T22:39:25.862Z,4.10
2018-07-01T22:41:55.432Z,2.53
2018-07-01T22:44:24.147Z,1.10
2018-07-01T22:46:53.429Z,2.13
2018-07-01T22:49:22.144Z,1.33
2018-07-01T22:51:50.878Z,1.37
2018-07-01T22:54:19.589Z,1.07
2018-07-01T22:56:48.314Z,1.20
2018-07-01T22:59:16.798Z,1.50
2018-07-01T23:03:00.030Z,1.40
2018-07-01T23:05:29.966Z,1.00
2018-07-01T23:07:58.678Z,1.10
2018-07-01T23:10:28.102Z,1.37
2018-07-01T23:12:57.508Z,1.00
2018-07-01T23:15:26.228Z,1.13
2018-07-01T23:17:54.809Z,1.30
2018-07-01T23:20:23.216Z,1.30
2018-07-01T23:22:51.816Z,1.30
2018-07-01T23:25:20.522Z,1.20
2018-07-01T23:27:49.221Z,0.90
2018-07-01T23:30:17.936Z,0.90
2018-07-01T23:32:47.284Z,1.20
2018-07-01T23:35:16.056Z,0.80
2018-07-01T23:37:45.363Z,0.80
2018-07-01T23:40:14.070Z,0.90
2018-07-01T23:42:43.088Z,1.10
2018-07-01T23:45:13.174Z,0.87
2018-07-01T23:47:42.000Z,0.90
2018-07-01T23:50:10.725Z,0.87
2018-07-01T23:52:39.509Z,0.83
2018-07-01T23:55:08.743Z,0.90
2018-07-01T23:57:37.434Z,1.10
